createdAt,value
2022-08-25T00:00:54.363Z,24.57
2022-08-25T00:06:16.942Z,24.57
2022-08-25T00:11:40.047Z,24.56
2022-08-25T00:17:02.096Z,24.55
2022-08-25T00:22:23.893Z,24.56
2022-08-25T00:27:45.812Z,24.56
2022-08-25T00:33:08.426Z,24.55
2022-08-25T00:38:30.327Z,24.54
2022-08-25T00:43:58.077Z,24.55
2022-08-25T00:49:29.069Z,24.53
2022-08-25T00:55:08.306Z,24.54
2022-08-25T01:00:37.320Z,24.53
2022-08-25T01:06:00.473Z,24.52
2022-08-25T01:11:22.388Z,24.52
2022-08-25T01:16:44.416Z,24.52
2022-08-25T01:22:06.385Z,24.52
2022-08-25T01:27:28.136Z,24.51
2022-08-25T01:32:49.843Z,24.52
2022-08-25T01:38:13.082Z,24.51
2022-08-25T01:43:38.935Z,24.52
2022-08-25T01:49:10.874Z,24.51
2022-08-25T01:54:32.759Z,24.51
2022-08-25T01:59:54.454Z,24.51
2022-08-25T02:05:18.482Z,24.51
2022-08-25T02:10:45.649Z,24.50
2022-08-25T02:16:09.482Z,24.50
2022-08-25T02:21:32.720Z,24.49
2022-08-25T02:26:54.529Z,24.49
2022-08-25T02:32:16.219Z,24.49
2022-08-25T02:37:37.966Z,24.48
2022-08-25T02:42:59.858Z,24.48
2022-08-25T02:48:21.925Z,24.48
2022-08-25T02:53:46.150Z,24.48
2022-08-25T02:59:07.868Z,24.47
2022-08-25T03:04:29.712Z,24.47
2022-08-25T03:09:51.704Z,24.47
2022-08-25T03:15:18.737Z,24.46
2022-08-25T03:20:40.847Z,24.46
2022-08-25T03:26:21.486Z,24.46
2022-08-25T03:31:45.027Z,24.46
2022-08-25T03:37:08.723Z,24.45
2022-08-25T03:42:30.454Z,24.45
2022-08-25T03:47:53.289Z,24.44
2022-08-25T03:53:15.108Z,24.44
2022-08-25T03:58:37.284Z,24.45
2022-08-25T04:03:59.002Z,24.43
2022-08-25T04:09:21.489Z,24.43
2022-08-25T04:14:43.248Z,24.43
2022-08-25T04:20:06.626Z,24.43
2022-08-25T04:25:28.726Z,24.42
2022-08-25T04:30:52.173Z,24.41
2022-08-25T04:36:15.119Z,24.41
2022-08-25T04:41:36.926Z,24.41
2022-08-25T04:46:59.611Z,24.41
2022-08-25T04:52:21.330Z,24.39
2022-08-25T04:57:43.531Z,24.39
2022-08-25T05:03:06.154Z,24.39
2022-08-25T05:08:27.944Z,24.38
2022-08-25T05:13:51.883Z,24.39
2022-08-25T05:19:13.677Z,24.38
2022-08-25T05:24:35.487Z,24.37
2022-08-25T05:29:57.185Z,24.37
2022-08-25T05:35:20.366Z,24.37
2022-08-25T05:40:42.061Z,24.37
2022-08-25T05:46:04.102Z,24.38
2022-08-25T05:51:26.862Z,24.37
2022-08-25T05:56:48.669Z,24.37
2022-08-25T06:02:29.055Z,24.37
2022-08-25T06:07:52.390Z,24.37
2022-08-25T06:13:14.542Z,24.38
2022-08-25T06:18:36.251Z,24.33
2022-08-25T06:23:58.072Z,24.26
2022-08-25T06:29:21.052Z,24.21
2022-08-25T06:34:42.747Z,24.18
2022-08-25T06:40:07.441Z,24.16
2022-08-25T06:45:29.154Z,24.13
2022-08-25T06:50:50.975Z,24.16
2022-08-25T06:56:13.535Z,24.14
2022-08-25T07:01:35.611Z,24.16
2022-08-25T07:06:57.406Z,24.18
2022-08-25T07:12:19.210Z,24.20
2022-08-25T07:17:40.942Z,24.24
2022-08-25T07:23:05.875Z,24.26
2022-08-25T07:28:27.681Z,24.27
2022-08-25T07:34:07.812Z,24.30
2022-08-25T07:39:32.423Z,24.31
2022-08-25T07:44:54.137Z,24.33
2022-08-25T07:50:15.946Z,24.32
2022-08-25T07:55:38.441Z,24.33
2022-08-25T08:01:00.152Z,24.34
2022-08-25T08:06:24.148Z,24.36
2022-08-25T08:11:53.833Z,24.37
2022-08-25T08:17:16.396Z,24.38
2022-08-25T08:22:41.117Z,24.40
2022-08-25T08:28:03.180Z,24.41
2022-08-25T08:33:25.989Z,24.45
2022-08-25T08:38:49.604Z,24.47
2022-08-25T08:44:42.537Z,24.49
2022-08-25T08:50:33.774Z,24.50
2022-08-25T08:56:19.630Z,24.52
2022-08-25T09:01:57.622Z,24.55
2022-08-25T09:07:24.751Z,24.61
2022-08-25T09:12:57.021Z,24.64
2022-08-25T09:18:29.535Z,24.69
2022-08-25T09:24:36.517Z,24.73
2022-08-25T09:30:14.149Z,24.79
2022-08-25T09:35:40.855Z,24.82
2022-08-25T09:41:03.180Z,24.85
2022-08-25T09:46:28.850Z,24.87
2022-08-25T09:51:52.671Z,24.86
2022-08-25T09:57:34.771Z,24.92
2022-08-25T10:03:06.016Z,24.93
2022-08-25T10:08:45.146Z,24.92
2022-08-25T10:14:18.798Z,24.93
2022-08-25T10:19:40.558Z,24.94
2022-08-25T10:25:04.921Z,24.97
2022-08-25T10:30:42.964Z,25.00
2022-08-25T10:36:21.356Z,25.01
2022-08-25T10:41:57.977Z,25.03
2022-08-25T10:47:57.759Z,25.06
2022-08-25T10:53:37.145Z,25.07
2022-08-25T10:59:19.921Z,25.08
2022-08-25T11:04:58.905Z,25.09
2022-08-25T11:10:28.027Z,25.10
2022-08-25T11:16:16.597Z,25.11
2022-08-25T11:21:47.815Z,25.12
2022-08-25T11:27:17.516Z,25.15
2022-08-25T11:32:41.961Z,25.17
2022-08-25T11:38:25.188Z,25.22
2022-08-25T11:44:23.818Z,25.22
2022-08-25T11:50:08.604Z,25.24
2022-08-25T11:55:51.410Z,25.26
2022-08-25T12:01:40.882Z,25.30
2022-08-25T12:07:11.412Z,25.33
2022-08-25T12:12:41.941Z,25.36
2022-08-25T12:18:18.757Z,25.38
2022-08-25T12:24:11.082Z,25.40
2022-08-25T12:29:57.495Z,25.45
2022-08-25T12:35:19.657Z,25.45
2022-08-25T12:40:45.333Z,25.49
2022-08-25T12:46:25.948Z,25.53
2022-08-25T12:51:53.948Z,25.55
2022-08-25T12:57:29.529Z,25.58
2022-08-25T13:03:14.168Z,25.59
2022-08-25T13:09:13.360Z,25.61
2022-08-25T13:14:40.632Z,25.62
2022-08-25T13:20:26.398Z,25.61
2022-08-25T13:25:52.050Z,25.64
2022-08-25T13:31:22.329Z,25.66
2022-08-25T13:37:04.892Z,25.67
2022-08-25T13:42:28.992Z,25.67
2022-08-25T13:47:55.848Z,25.65
2022-08-25T13:53:26.145Z,25.65
2022-08-25T13:58:47.885Z,25.66
2022-08-25T14:04:32.928Z,25.68
2022-08-25T14:10:01.631Z,25.70
2022-08-25T14:15:23.529Z,25.72
2022-08-25T14:20:54.288Z,25.77
2022-08-25T14:26:16.092Z,25.78
2022-08-25T14:31:43.452Z,25.86
2022-08-25T14:37:18.015Z,25.90
2022-08-25T14:42:40.242Z,25.91
2022-08-25T14:48:10.625Z,25.91
2022-08-25T14:53:33.662Z,25.92
2022-08-25T14:58:55.783Z,25.92
2022-08-25T15:04:20.594Z,25.94
2022-08-25T15:09:42.338Z,25.95
2022-08-25T15:15:04.531Z,25.97
2022-08-25T15:20:26.702Z,25.96
2022-08-25T15:25:52.642Z,25.95
2022-08-25T15:31:15.781Z,25.94
2022-08-25T15:36:38.027Z,25.94
2022-08-25T15:42:00.308Z,25.94
2022-08-25T15:47:24.306Z,25.94
2022-08-25T15:52:47.548Z,25.92
2022-08-25T15:58:10.292Z,25.92
2022-08-25T16:03:32.622Z,25.90
2022-08-25T16:08:54.576Z,25.92
2022-08-25T16:14:16.373Z,25.92
2022-08-25T16:19:38.382Z,25.95
2022-08-25T16:25:02.670Z,25.98
2022-08-25T16:30:24.507Z,26.00
2022-08-25T16:35:47.580Z,26.04
2022-08-25T16:41:21.453Z,26.04
2022-08-25T16:46:44.321Z,26.06
2022-08-25T16:52:28.384Z,26.07
2022-08-25T16:57:55.572Z,26.09
2022-08-25T17:03:17.357Z,26.02
2022-08-25T17:08:39.945Z,26.03
2022-08-25T17:14:06.809Z,26.00
2022-08-25T17:19:33.386Z,25.98
2022-08-25T17:25:00.742Z,25.97
2022-08-25T17:30:23.084Z,25.94
2022-08-25T17:35:49.829Z,25.88
2022-08-25T17:41:12.439Z,25.86
2022-08-25T17:46:34.315Z,25.84
2022-08-25T17:51:56.102Z,25.84
2022-08-25T17:57:17.886Z,25.82
2022-08-25T18:02:39.642Z,25.83
2022-08-25T18:08:01.738Z,25.81
2022-08-25T18:13:26.886Z,25.81
2022-08-25T18:18:51.382Z,25.79
2022-08-25T18:24:14.522Z,25.77
2022-08-25T18:29:36.456Z,25.76
2022-08-25T18:34:58.950Z,25.74
2022-08-25T18:40:24.009Z,25.72
2022-08-25T18:45:50.441Z,25.70
2022-08-25T18:51:12.270Z,25.68
2022-08-25T18:56:35.253Z,25.66
2022-08-25T19:01:57.637Z,25.65
2022-08-25T19:07:19.765Z,25.64
2022-08-25T19:12:41.628Z,25.62
2022-08-25T19:18:10.726Z,25.60
2022-08-25T19:23:32.826Z,25.58
2022-08-25T19:28:55.434Z,25.56
2022-08-25T19:34:28.352Z,25.56
2022-08-25T19:39:54.146Z,25.54
2022-08-25T19:45:15.968Z,25.53
2022-08-25T19:50:38.529Z,25.50
2022-08-25T19:56:02.270Z,25.48
2022-08-25T20:01:25.694Z,25.47
2022-08-25T20:06:48.270Z,25.47
2022-08-25T20:12:10.903Z,25.49
2022-08-25T20:17:33.695Z,25.50
2022-08-25T20:23:16.251Z,25.48
2022-08-25T20:28:42.026Z,25.47
2022-08-25T20:34:04.508Z,25.46
2022-08-25T20:39:26.298Z,25.44
2022-08-25T20:44:48.020Z,25.44
2022-08-25T20:50:10.420Z,25.42
2022-08-25T20:55:32.342Z,25.42
2022-08-25T21:01:03.683Z,25.40
2022-08-25T21:06:25.485Z,25.39
2022-08-25T21:11:48.321Z,25.38
2022-08-25T21:17:13.352Z,25.36
2022-08-25T21:22:36.121Z,25.35
2022-08-25T21:27:59.890Z,25.34
2022-08-25T21:33:21.674Z,25.33
2022-08-25T21:38:48.122Z,25.33
2022-08-25T21:44:11.178Z,25.35
2022-08-25T21:49:37.352Z,25.38
2022-08-25T21:55:02.267Z,25.40
2022-08-25T22:00:24.871Z,25.43
2022-08-25T22:05:46.559Z,25.46
2022-08-25T22:11:10.989Z,25.48
2022-08-25T22:16:35.098Z,25.49
2022-08-25T22:21:57.776Z,25.51
2022-08-25T22:27:23.472Z,25.54
2022-08-25T22:32:45.671Z,25.56
2022-08-25T22:38:08.381Z,25.55
2022-08-25T22:43:34.586Z,25.54
2022-08-25T22:48:57.010Z,25.53
2022-08-25T22:54:18.725Z,25.50
2022-08-25T22:59:40.731Z,25.47
2022-08-25T23:05:02.862Z,25.45
2022-08-25T23:10:25.696Z,25.43
2022-08-25T23:15:47.502Z,25.41
2022-08-25T23:21:28.024Z,25.40
2022-08-25T23:26:49.809Z,25.38
2022-08-25T23:32:14.496Z,25.37
2022-08-25T23:37:36.978Z,25.35
2022-08-25T23:42:58.663Z,25.34
2022-08-25T23:48:21.408Z,25.32
2022-08-25T23:53:43.171Z,25.31
2022-08-25T23:59:06.229Z,25.31
